Time;durP1;ratioP1;P1;durP2;ratioP2;P2;SDS_P1;SDS_P2;PMS_P1;PMS_P2;Temp;Humidity;BMP_temperature;BMP_pressure;BME280_temperature;BME280_humidity;BME280_pressure;Samples;Min_cycle;Max_cycle;Signal;HPM_P1;HPM_P2
2022/04/11 00:02:09;;;;;;;56.98;26.85;;;;;;;-0.16;81.58;99219.55;4148115;84;21674;-87
2022/04/11 00:08:14;;;;;;;65.78;30.45;;;;;;;-0.19;82.02;99221.50;4148071;84;21637;-86
2022/04/11 00:14:16;;;;;;;53.90;26.50;;;;;;;-0.24;81.68;99220.28;4146289;85;21090;-87
2022/04/11 00:20:17;;;;;;;66.10;30.37;;;;;;;-0.17;82.90;99222.02;4147005;83;21917;-87
2022/04/11 00:26:19;;;;;;;52.15;26.45;;;;;;;-0.03;82.89;99221.45;4150294;85;21073;-87
2022/04/11 00:32:20;;;;;;;58.02;27.75;;;;;;;0.11;83.50;99227.39;4100185;85;21523;-86
2022/04/11 00:38:22;;;;;;;51.83;24.85;;;;;;;0.23;83.04;99226.31;4127223;86;21098;-87
2022/04/11 00:44:24;;;;;;;48.75;24.67;;;;;;;0.25;83.36;99224.13;4122118;86;21065;-87
2022/04/11 00:50:28;;;;;;;48.40;24.05;;;;;;;0.41;83.78;99230.21;4134952;86;22219;-86
2022/04/11 00:56:30;;;;;;;44.42;24.57;;;;;;;0.65;84.08;99233.99;4124341;86;21084;-88
2022/04/11 01:02:32;;;;;;;50.00;26.23;;;;;;;0.65;84.08;99233.99;4101952;85;21045;-87
2022/04/11 01:08:38;;;;;;;49.83;24.72;;;;;;;0.70;83.97;99232.00;4111907;85;21538;-87
2022/04/11 01:14:37;;;;;;;47.35;22.85;;;;;;;0.69;83.46;99235.00;4122772;85;21010;-86
2022/04/11 01:20:39;;;;;;;52.00;24.23;;;;;;;0.69;83.46;99235.00;4127593;86;21083;-86
2022/04/11 01:26:43;;;;;;;50.75;23.92;;;;;;;0.63;84.26;99232.14;4119988;86;21623;-86
2022/04/11 01:32:44;;;;;;;49.13;25.52;;;;;;;0.72;84.75;99231.69;4118253;86;21535;-85
2022/04/11 01:38:45;;;;;;;43.08;24.82;;;;;;;0.83;84.87;99238.44;4075805;87;21109;-86
2022/04/11 01:44:47;;;;;;;47.17;23.90;;;;;;;0.91;84.99;99240.41;4098486;87;21046;-86
2022/04/11 01:50:49;;;;;;;55.48;24.67;;;;;;;0.80;85.03;99223.66;4049994;87;21486;-86
2022/04/11 01:56:50;;;;;;;44.80;24.77;;;;;;;0.80;84.95;99233.09;4077694;87;21043;-86
2022/04/11 02:02:52;;;;;;;43.10;22.77;;;;;;;0.83;85.02;99254.04;4068676;87;21035;-86
2022/04/11 02:08:53;;;;;;;45.73;24.63;;;;;;;0.82;84.85;99256.50;4040954;87;21056;-86
2022/04/11 02:14:55;;;;;;;40.23;22.73;;;;;;;0.83;85.32;99260.78;4066410;87;21093;-85
2022/04/11 02:20:56;;;;;;;42.30;23.65;;;;;;;0.75;85.15;99262.06;4060378;87;21061;-85
2022/04/11 02:26:57;;;;;;;41.53;21.77;;;;;;;0.71;85.46;99262.41;4081321;87;21980;-85
2022/04/11 02:32:59;;;;;;;44.85;23.10;;;;;;;0.71;85.48;99263.76;4071826;86;21585;-87
2022/04/11 02:39:00;;;;;;;38.88;20.85;;;;;;;0.75;85.61;99265.53;4081109;86;21020;-86
2022/04/11 02:45:04;;;;;;;39.65;21.40;;;;;;;0.85;85.29;99271.25;4078530;86;21080;-87
2022/04/11 02:51:06;;;;;;;39.38;20.82;;;;;;;0.85;85.27;99277.45;4053921;86;21124;-86
2022/04/11 02:57:12;;;;;;;40.73;21.30;;;;;;;0.89;85.76;99276.30;4085058;86;22292;-86
2022/04/11 03:03:13;;;;;;;40.95;21.37;;;;;;;0.93;86.00;99285.35;4075617;86;21068;-86
2022/04/11 03:09:17;;;;;;;42.43;21.85;;;;;;;0.99;86.52;99290.33;4087630;86;21548;-87
2022/04/11 03:15:18;;;;;;;47.83;23.47;;;;;;;0.99;86.52;99290.33;4092440;86;21005;-86
2022/04/11 03:21:20;;;;;;;36.75;21.82;;;;;;;1.03;86.67;99288.62;4091518;86;21012;-86
2022/04/11 03:27:23;;;;;;;42.20;21.30;;;;;;;1.08;86.72;99293.11;4088862;86;21056;-86
2022/04/11 03:33:25;;;;;;;43.28;19.65;;;;;;;1.13;86.79;99294.31;4073537;86;21664;-86
2022/04/11 03:39:26;;;;;;;36.05;19.73;;;;;;;1.17;86.82;99292.61;4202752;84;21007;-86
2022/04/11 03:45:28;;;;;;;35.17;18.77;;;;;;;1.29;86.43;99305.80;4128895;84;21026;-87
2022/04/11 03:51:30;;;;;;;33.05;18.27;;;;;;;1.35;86.57;99307.25;4199865;84;21051;-87
2022/04/11 03:57:33;;;;;;;32.80;18.10;;;;;;;1.34;86.77;99294.89;4202334;84;21549;-87
2022/04/11 04:03:37;;;;;;;34.58;17.92;;;;;;;1.50;87.07;99316.89;4226277;82;60081;-86
2022/04/11 04:09:40;;;;;;;29.00;16.93;;;;;;;1.57;86.71;99320.73;4271771;82;21081;-87
2022/04/11 04:15:43;;;;;;;31.57;17.45;;;;;;;1.66;87.29;99324.05;4266543;82;21049;-88
2022/04/11 04:21:45;;;;;;;34.25;18.15;;;;;;;1.73;87.27;99323.04;4241337;82;21069;-88
2022/04/11 04:27:48;;;;;;;30.12;17.23;;;;;;;1.83;87.12;99338.98;4266721;82;21014;-87
2022/04/11 04:33:51;;;;;;;27.98;15.28;;;;;;;1.88;87.22;99340.21;4267160;82;21085;-88
2022/04/11 04:39:56;;;;;;;33.67;18.10;;;;;;;1.93;87.65;99345.48;4260353;82;22358;-87
2022/04/11 04:45:59;;;;;;;36.70;18.30;;;;;;;1.98;87.47;99359.64;4273037;82;21021;-88
2022/04/11 04:52:06;;;;;;;35.80;19.17;;;;;;;2.02;87.55;99368.70;4266759;82;20998;-89
2022/04/11 04:58:09;;;;;;;37.33;18.67;;;;;;;2.09;87.44;99376.36;4242574;82;21046;-88
2022/04/11 05:04:12;;;;;;;31.33;17.60;;;;;;;2.16;87.25;99380.78;4268592;82;20990;-89
2022/04/11 05:10:15;;;;;;;29.85;15.35;;;;;;;2.23;87.33;99383.82;4270861;82;21011;-87
2022/04/11 05:16:18;;;;;;;28.45;15.45;;;;;;;2.31;87.10;99384.41;4270013;82;21070;-88
2022/04/11 05:22:20;;;;;;;27.82;15.23;;;;;;;2.39;87.38;99380.41;4243100;82;21050;-89
2022/04/11 05:28:23;;;;;;;23.18;13.55;;;;;;;2.51;87.34;99394.13;4267599;82;21057;-86
2022/04/11 05:34:26;;;;;;;21.37;11.38;;;;;;;2.68;87.50;99402.83;4278074;81;21026;-87
2022/04/11 05:40:29;;;;;;;22.32;13.28;;;;;;;2.77;86.92;99414.49;4314018;81;21108;-88
2022/04/11 05:46:31;;;;;;;20.62;12.85;;;;;;;2.86;86.96;99422.06;4313884;82;21041;-87
2022/04/11 05:52:38;;;;;;;26.40;14.47;;;;;;;2.97;87.24;99428.23;4311796;81;21049;-85
2022/04/11 05:58:39;;;;;;;31.02;15.38;;;;;;;3.12;87.01;99431.03;4311059;81;21557;-86
2022/04/11 06:04:41;;;;;;;21.93;13.68;;;;;;;3.18;86.41;99429.77;4316386;81;21518;-86
2022/04/11 06:10:44;;;;;;;25.62;14.23;;;;;;;3.27;86.19;99436.01;4309921;81;21048;-86
2022/04/11 06:16:48;;;;;;;24.67;14.73;;;;;;;3.34;86.17;99438.22;4314158;81;21073;-85
2022/04/11 06:22:49;;;;;;;22.67;13.53;;;;;;;3.38;85.80;99437.30;4316096;81;21975;-86
2022/04/11 06:28:51;;;;;;;24.37;14.87;;;;;;;3.42;85.60;99437.44;4313173;81;21052;-87
2022/04/11 06:34:52;;;;;;;29.20;15.13;;;;;;;3.54;85.78;99437.05;4306533;81;21062;-86
2022/04/11 06:40:56;;;;;;;28.80;14.68;;;;;;;3.99;85.42;99430.75;4269484;83;21951;-87
2022/04/11 06:46:59;;;;;;;22.93;13.85;;;;;;;4.33;84.96;99430.67;4269572;82;21573;-86
2022/04/11 06:53:01;;;;;;;31.02;14.78;;;;;;;4.73;84.36;99425.17;4267657;83;20982;-87
2022/04/11 06:59:02;;;;;;;22.58;14.93;;;;;;;4.84;84.35;99430.47;4267655;83;21034;-87
2022/04/11 07:05:05;;;;;;;24.65;12.55;;;;;;;5.41;84.02;99434.30;4177038;84;21071;-87
2022/04/11 07:11:06;;;;;;;22.98;12.93;;;;;;;5.54;83.05;99447.39;4269909;82;21066;-86
2022/04/11 07:17:08;;;;;;;26.02;13.13;;;;;;;5.65;82.68;99449.38;4271453;82;21874;-86
2022/04/11 07:23:09;;;;;;;25.17;12.50;;;;;;;5.85;81.83;99457.31;4269234;82;21069;-86
2022/04/11 07:29:10;;;;;;;30.00;12.07;;;;;;;6.17;81.57;99449.77;4273311;82;21427;-85
2022/04/11 07:35:12;;;;;;;16.93;9.88;;;;;;;6.43;81.51;99455.72;4259801;82;21042;-86
2022/04/11 07:41:13;;;;;;;17.17;8.53;;;;;;;6.98;78.54;99451.14;4308267;81;21060;-86
2022/04/11 07:47:14;;;;;;;16.17;8.35;;;;;;;6.85;76.99;99450.34;4224438;83;21091;-84
2022/04/11 07:53:16;;;;;;;17.77;8.28;;;;;;;6.91;75.22;99457.70;4210894;84;21519;-85
2022/04/11 07:59:17;;;;;;;20.70;7.55;;;;;;;6.86;77.22;99456.59;4213310;83;21080;-87
2022/04/11 08:05:21;;;;;;;9.53;5.83;;;;;;;7.53;76.06;99452.11;4213865;84;22221;-87
2022/04/11 08:11:23;;;;;;;14.05;6.08;;;;;;;7.94;75.11;99450.41;4209000;83;21089;-87
2022/04/11 08:17:24;;;;;;;14.98;6.33;;;;;;;7.91;74.43;99461.21;4213102;83;21014;-86
2022/04/11 08:23:26;;;;;;;15.03;5.72;;;;;;;8.00;72.19;99454.48;4211544;84;22031;-85
2022/04/11 08:29:28;;;;;;;14.20;5.37;;;;;;;8.06;72.44;99449.59;4212906;83;21010;-85
2022/04/11 08:35:29;;;;;;;7.22;4.37;;;;;;;8.72;72.79;99452.56;4207348;83;21113;-86
2022/04/11 08:41:36;;;;;;;12.73;4.58;;;;;;;8.73;71.14;99445.38;4183176;84;21026;-87
2022/04/11 08:47:37;;;;;;;10.05;3.20;;;;;;;8.60;70.17;99446.59;4182293;84;21054;-84
2022/04/11 08:53:39;;;;;;;14.18;3.90;;;;;;;8.67;69.58;99444.63;4180386;84;21058;-86
2022/04/11 08:59:40;;;;;;;9.50;5.03;;;;;;;8.32;68.79;99451.30;4181321;84;21066;-85
2022/04/11 09:05:42;;;;;;;10.00;3.92;;;;;;;8.52;69.26;99450.28;4180917;84;21023;-85
2022/04/11 09:11:44;;;;;;;6.35;3.52;;;;;;;8.76;68.21;99455.59;4176695;84;21051;-85
2022/04/11 09:17:46;;;;;;;7.62;4.03;;;;;;;8.12;67.76;99454.20;4182163;84;22206;-86
2022/04/11 09:23:48;;;;;;;10.18;5.20;;;;;;;7.82;68.17;99463.29;4184946;84;21101;-86
2022/04/11 09:29:50;;;;;;;7.87;4.62;;;;;;;7.58;68.73;99468.81;4181684;84;21519;-86
2022/04/11 09:35:54;;;;;;;5.67;3.70;;;;;;;8.08;68.80;99467.73;4187917;83;20985;-87
2022/04/11 09:41:57;;;;;;;6.72;3.02;;;;;;;9.12;69.88;99458.05;4186914;84;21018;-86
2022/04/11 09:48:04;;;;;;;10.50;4.30;;;;;;;10.74;69.17;99444.46;4136423;85;21038;-88
2022/04/11 09:54:25;;;;;;;8.58;4.60;;;;;;;11.73;66.90;99455.05;4131869;85;21632;-87
2022/04/11 10:00:28;;;;;;;9.08;5.05;;;;;;;12.88;62.93;99449.31;4128359;85;21034;-86
2022/04/11 10:06:31;;;;;;;12.18;5.47;;;;;;;12.08;65.41;99480.22;4138686;85;22227;-86
2022/04/11 10:12:33;;;;;;;9.48;6.33;;;;;;;10.22;66.67;99470.85;4157065;83;21081;-85
2022/04/11 10:18:35;;;;;;;6.12;5.10;;;;;;;10.09;67.04;99461.20;4245822;82;21141;-86
2022/04/11 10:24:57;;;;;;;9.80;5.60;;;;;;;10.77;66.23;99456.65;4269848;82;21053;-85
2022/04/11 10:31:11;;;;;;;13.15;5.70;;;;;;;11.67;65.24;99444.77;4269865;82;21616;-85
2022/04/11 10:50:12;;;;;;;11.12;4.37;;;;;;;13.46;62.65;99430.16;4050485;83;21126;-86
2022/04/11 10:56:10;;;;;;;6.33;3.42;;;;;;;13.79;58.79;99421.13;4291857;81;21017;-86
2022/04/11 11:02:13;;;;;;;10.98;3.60;;;;;;;13.20;59.72;99408.38;4288671;81;21025;-86
2022/04/11 11:08:21;;;;;;;9.10;2.42;;;;;;;12.41;56.92;99415.70;4208286;83;21100;-86
2022/04/11 11:14:41;;;;;;;4.50;2.20;;;;;;;11.40;57.66;99426.75;4183870;83;21027;-89
2022/04/11 11:20:57;;;;;;;7.80;2.45;;;;;;;11.64;58.77;99422.20;4174548;83;21101;-86
2022/04/11 11:27:03;;;;;;;14.00;3.15;;;;;;;11.97;57.11;99423.05;4197907;84;21051;-86
2022/04/11 11:33:25;;;;;;;4.83;2.25;;;;;;;11.31;57.37;99414.66;4208451;83;20998;-87
2022/04/11 11:39:30;;;;;;;5.83;2.77;;;;;;;10.60;57.82;99416.84;4191543;83;20995;-87
2022/04/11 11:45:32;;;;;;;5.53;2.60;;;;;;;10.84;57.10;99405.52;4189569;83;21051;-87
2022/04/11 11:51:34;;;;;;;8.03;2.80;;;;;;;11.03;55.28;99390.95;4134482;84;21022;-88
2022/04/11 11:57:37;;;;;;;4.75;2.65;;;;;;;10.38;56.63;99392.98;4146929;85;21115;-87
2022/04/11 12:10:08;;;;;;;13.33;3.17;;;;;;;11.06;55.86;99377.88;4269676;82;21018;-86
2022/04/11 12:16:17;;;;;;;4.90;2.55;;;;;;;11.58;54.90;99370.19;4269676;82;21304;-87
2022/04/11 12:22:19;;;;;;;5.47;2.50;;;;;;;11.64;53.25;99385.98;4258287;82;21065;-87
2022/04/11 12:28:24;;;;;;;8.65;2.77;;;;;;;10.86;53.60;99381.31;4262751;82;21847;-87
2022/04/11 12:34:37;;;;;;;7.15;2.40;;;;;;;10.78;54.71;99380.18;4271480;82;21030;-87
2022/04/11 12:40:44;;;;;;;6.03;2.30;;;;;;;11.78;54.73;99371.65;4296170;81;20990;-85
2022/04/11 12:47:03;;;;;;;4.95;2.30;;;;;;;12.33;52.54;99363.27;4303626;81;21109;-87
2022/04/11 12:53:07;;;;;;;16.23;2.58;;;;;;;12.87;49.34;99352.95;4303975;81;21045;-86
2022/04/11 12:59:10;;;;;;;10.23;2.25;;;;;;;12.65;50.19;99351.97;4276623;81;21033;-85
2022/04/11 13:05:15;;;;;;;9.15;2.40;;;;;;;12.03;48.64;99359.81;4304427;81;21006;-86
2022/04/11 13:11:17;;;;;;;7.70;2.25;;;;;;;12.26;49.86;99359.67;4304427;81;21068;-86
2022/04/11 13:23:38;;;;;;;5.92;2.12;;;;;;;12.58;49.30;99368.41;4301422;81;21065;-87
2022/04/11 13:29:39;;;;;;;2.92;1.55;;;;;;;12.33;48.01;99366.02;4299818;81;21014;-86
2022/04/11 13:35:40;;;;;;;4.25;1.27;;;;;;;11.56;48.41;99364.31;4302898;81;21073;-86
2022/04/11 13:41:47;;;;;;;2.87;1.57;;;;;;;11.16;48.15;99356.71;4301881;81;21021;-86
2022/04/11 13:47:45;;;;;;;12.45;2.85;;;;;;;11.15;48.89;99356.48;4304153;81;21065;-86
2022/04/11 13:53:46;;;;;;;2.95;1.60;;;;;;;10.51;48.63;99351.16;4301758;81;21049;-86
2022/04/11 13:59:48;;;;;;;12.33;2.62;;;;;;;10.26;48.23;99349.94;4299774;81;21630;-85
2022/04/11 14:05:49;;;;;;;9.70;1.52;;;;;;;10.08;48.60;99370.16;4307108;82;21525;-85
2022/04/11 14:11:50;;;;;;;4.87;1.80;;;;;;;9.57;49.82;99390.56;4304824;81;21643;-85
2022/04/11 14:17:53;;;;;;;3.70;2.00;;;;;;;9.15;50.71;99384.16;4297802;81;21005;-86
2022/04/11 14:23:55;;;;;;;4.47;2.02;;;;;;;9.02;50.81;99370.42;4299012;81;21033;-86
2022/04/11 14:29:56;;;;;;;5.50;2.22;;;;;;;8.94;51.51;99360.48;4302435;81;20995;-87
2022/04/11 14:36:01;;;;;;;6.55;2.52;;;;;;;9.07;51.40;99354.55;4304634;81;21034;-86
2022/04/11 14:42:04;;;;;;;5.62;1.90;;;;;;;9.02;51.34;99343.12;4313574;81;21601;-86
2022/04/11 14:48:08;;;;;;;5.45;2.12;;;;;;;9.40;51.83;99340.42;4310680;81;20994;-86
2022/04/11 14:54:10;;;;;;;7.45;1.75;;;;;;;9.85;51.34;99332.95;4313106;81;21056;-86
2022/04/11 15:00:13;;;;;;;4.05;2.12;;;;;;;9.76;51.23;99327.70;4313138;81;21061;-85
2022/04/11 15:06:14;;;;;;;4.67;2.45;;;;;;;9.87;50.55;99318.32;4314877;81;21002;-85
2022/04/11 15:12:16;;;;;;;4.22;2.10;;;;;;;9.85;50.44;99315.17;4311850;81;21026;-85
2022/04/11 15:18:17;;;;;;;6.75;2.37;;;;;;;9.39;47.74;99317.80;4300323;81;21880;-85
2022/04/11 15:24:18;;;;;;;6.47;2.87;;;;;;;8.89;49.51;99317.87;4310598;81;21006;-86
2022/04/11 15:30:19;;;;;;;8.13;2.83;;;;;;;8.60;50.58;99315.61;4312468;81;21736;-86
2022/04/11 15:36:21;;;;;;;6.75;2.92;;;;;;;8.59;50.24;99316.77;4316648;81;21050;-85
2022/04/11 15:42:23;;;;;;;6.03;3.00;;;;;;;8.47;51.22;99316.84;4307596;81;20993;-86
2022/04/11 15:48:24;;;;;;;5.53;2.85;;;;;;;8.40;51.49;99318.61;4304402;81;21065;-86
2022/04/11 15:54:25;;;;;;;6.60;2.72;;;;;;;8.30;51.74;99321.29;4306947;81;21042;-86
2022/04/11 16:00:27;;;;;;;8.13;2.45;;;;;;;8.30;51.94;99311.74;4304897;81;21010;-85
2022/04/11 16:06:28;;;;;;;6.50;3.20;;;;;;;8.47;51.67;99314.11;4313515;81;21456;-87
2022/04/11 16:12:29;;;;;;;7.35;2.70;;;;;;;8.63;51.29;99312.17;4303669;81;21128;-86
2022/04/11 16:18:31;;;;;;;7.50;2.60;;;;;;;8.74;51.57;99301.52;4300653;81;21069;-85
2022/04/11 16:24:33;;;;;;;8.03;2.50;;;;;;;8.69;51.40;99307.25;4302980;81;21057;-86
2022/04/11 16:30:34;;;;;;;9.18;2.55;;;;;;;8.59;51.46;99304.48;4313863;81;21017;-86
2022/04/11 16:36:36;;;;;;;5.72;3.12;;;;;;;8.40;51.82;99305.77;4311062;81;21094;-86
2022/04/11 16:42:38;;;;;;;6.62;2.98;;;;;;;8.13;51.87;99300.38;4299752;81;21130;-85
2022/04/11 16:48:40;;;;;;;5.05;2.60;;;;;;;7.93;52.40;99308.45;4310324;81;22077;-85
2022/04/11 16:54:41;;;;;;;8.68;3.00;;;;;;;7.80;51.97;99304.20;4195857;80;9999523;-87
2022/04/11 17:00:43;;;;;;;6.37;2.98;;;;;;;7.71;52.56;99308.22;4310292;81;21037;-86
2022/04/11 17:06:44;;;;;;;9.53;4.53;;;;;;;7.52;52.71;99316.25;4309828;81;21112;-86
2022/04/11 17:12:46;;;;;;;12.30;5.47;;;;;;;7.29;53.08;99312.48;4314030;81;21477;-86
2022/04/11 17:18:47;;;;;;;29.85;12.78;;;;;;;7.13;53.21;99319.78;4313211;81;21651;-86
2022/04/11 17:24:49;;;;;;;22.73;12.20;;;;;;;6.89;53.68;99323.92;4317155;81;21010;-85
2022/04/11 17:30:50;;;;;;;33.60;16.77;;;;;;;6.65;54.22;99320.66;4310540;81;21065;-86
2022/04/11 17:36:51;;;;;;;22.65;10.40;;;;;;;6.54;55.10;99326.88;4311058;81;21064;-86
2022/04/11 17:42:53;;;;;;;23.20;12.47;;;;;;;6.33;55.07;99331.06;4300289;82;21058;-86
2022/04/11 17:48:54;;;;;;;32.63;15.23;;;;;;;6.17;55.63;99341.03;4301870;82;20986;-86
2022/04/11 17:54:55;;;;;;;57.55;27.73;;;;;;;6.03;55.43;99338.61;4183977;81;10000389;-86
2022/04/11 18:00:58;;;;;;;42.45;22.15;;;;;;;5.93;56.55;99345.84;4302486;81;21038;-87
2022/04/11 18:06:59;;;;;;;47.78;22.65;;;;;;;5.91;57.04;99344.02;4310419;82;21060;-87
2022/04/11 18:13:01;;;;;;;51.35;23.62;;;;;;;5.88;57.32;99357.47;4310336;82;21006;-87
2022/04/11 18:19:02;;;;;;;48.40;23.38;;;;;;;5.79;57.83;99361.62;4299226;82;21538;-86
2022/04/11 18:25:05;;;;;;;101.22;40.83;;;;;;;5.54;58.10;99365.36;4301038;82;21033;-86
2022/04/11 18:37:26;;;;;;;57.58;25.82;;;;;;;5.33;58.98;99383.57;4295694;82;20978;-85
2022/04/11 18:43:28;;;;;;;57.10;26.48;;;;;;;5.17;60.26;99392.05;4268179;82;21057;-87
2022/04/11 18:49:30;;;;;;;56.45;27.20;;;;;;;4.96;59.56;99393.16;4265671;82;21667;-86
2022/04/11 18:55:31;;;;;;;63.42;32.67;;;;;;;4.77;59.74;99401.72;4149428;80;10000454;-85
2022/04/11 19:01:33;;;;;;;90.10;42.90;;;;;;;4.54;60.30;99400.40;4273005;82;21971;-85
2022/04/11 19:07:36;;;;;;;134.97;66.02;;;;;;;4.49;61.09;99400.57;4268939;82;21499;-86
2022/04/11 19:13:37;;;;;;;110.50;57.45;;;;;;;4.42;61.31;99398.36;4273390;83;20951;-86
2022/04/11 19:19:38;;;;;;;92.45;46.18;;;;;;;4.41;61.71;99401.39;4269911;82;21503;-87
2022/04/11 19:25:40;;;;;;;96.80;45.35;;;;;;;4.36;62.20;99402.38;4266208;83;21003;-87
2022/04/11 19:31:41;;;;;;;85.12;42.13;;;;;;;4.13;62.24;99396.14;4269777;82;21645;-86
2022/04/11 19:37:43;;;;;;;93.05;40.95;;;;;;;4.12;63.71;99409.47;4270369;82;21002;-87
2022/04/11 19:43:45;;;;;;;96.08;45.03;;;;;;;4.16;63.66;99409.04;4308338;81;21009;-86
2022/04/11 19:49:50;;;;;;;79.35;39.75;;;;;;;4.23;63.89;99407.97;4309112;81;21002;-87
2022/04/11 19:55:52;;;;;;;96.45;45.98;;;;;;;4.24;64.82;99410.39;4139755;81;10000491;-86
2022/04/11 20:01:53;;;;;;;96.63;47.03;;;;;;;4.30;64.80;99402.31;4308162;81;20986;-86
2022/04/11 20:07:56;;;;;;;111.68;54.55;;;;;;;4.27;64.51;99402.16;4313778;82;21399;-89
2022/04/11 20:13:58;;;;;;;109.63;54.53;;;;;;;4.25;65.32;99393.55;4317324;82;20994;-87
2022/04/11 20:20:00;;;;;;;98.80;49.00;;;;;;;4.19;66.04;99399.72;4314826;82;20998;-86
2022/04/11 20:26:02;;;;;;;98.55;48.35;;;;;;;4.20;66.35;99401.84;4315266;82;20986;-85
2022/04/11 20:32:05;;;;;;;90.72;42.45;;;;;;;4.10;66.29;99407.63;4315594;81;21725;-86
2022/04/11 20:38:06;;;;;;;110.75;49.98;;;;;;;4.12;67.56;99416.23;4315889;81;20999;-86
2022/04/11 20:44:09;;;;;;;94.92;45.92;;;;;;;4.09;67.33;99412.23;4315495;81;21102;-86
2022/04/11 20:50:11;;;;;;;112.30;53.73;;;;;;;4.07;67.29;99411.76;4313828;81;21101;-87
2022/04/11 20:56:18;;;;;;;133.12;61.88;;;;;;;4.02;68.08;99406.53;4313304;81;21014;-86
2022/04/11 21:02:15;;;;;;;122.47;57.83;;;;;;;4.04;68.20;99401.56;4313009;81;21070;-86
2022/04/11 21:08:18;;;;;;;157.97;71.07;;;;;;;3.99;68.64;99405.83;4312558;82;21915;-85
2022/04/11 21:14:21;;;;;;;173.22;80.10;;;;;;;4.06;69.23;99407.47;4313587;81;21526;-85
2022/04/11 21:20:22;;;;;;;140.50;63.58;;;;;;;4.04;69.27;99402.92;4311997;81;21026;-86
2022/04/11 21:26:24;;;;;;;126.27;61.70;;;;;;;4.06;68.78;99409.38;4313374;81;21030;-87
2022/04/11 21:32:25;;;;;;;127.58;60.88;;;;;;;4.06;70.30;99412.08;4311455;81;20994;-85
2022/04/11 21:38:26;;;;;;;123.40;59.55;;;;;;;4.07;70.26;99409.05;4313951;81;21064;-86
2022/04/11 21:44:27;;;;;;;125.20;60.83;;;;;;;4.05;70.63;99407.24;4305075;82;21065;-86
2022/04/11 21:50:29;;;;;;;120.70;57.05;;;;;;;3.95;70.37;99406.76;4211918;83;21121;-86
2022/04/11 21:56:31;;;;;;;102.25;49.00;;;;;;;3.81;70.44;99409.66;4139062;85;21521;-85
2022/04/11 22:08:52;;;;;;;111.05;53.52;;;;;;;3.76;71.15;99390.86;4147858;85;21076;-86
2022/04/11 22:14:53;;;;;;;102.00;47.35;;;;;;;3.74;71.71;99390.95;4134741;84;21072;-86
2022/04/11 22:20:55;;;;;;;153.35;61.33;;;;;;;3.72;70.87;99385.05;4134576;85;21110;-87
2022/04/11 22:26:57;;;;;;;106.17;50.10;;;;;;;3.56;71.83;99375.28;4202646;83;21007;-87
2022/04/11 22:32:58;;;;;;;183.37;64.57;;;;;;;3.33;72.40;99394.70;4201937;83;21046;-86
2022/04/11 22:38:59;;;;;;;99.40;45.30;;;;;;;3.15;71.98;99396.58;4200089;83;21584;-86
2022/04/11 22:45:01;;;;;;;92.85;44.67;;;;;;;3.08;73.71;99409.25;4198685;83;21631;-86
2022/04/11 22:51:03;;;;;;;82.17;38.55;;;;;;;3.08;73.43;99407.09;4199515;84;21638;-86
2022/04/11 22:57:05;;;;;;;82.57;39.33;;;;;;;3.17;74.23;99409.25;4215337;83;21062;-86
2022/04/11 23:03:08;;;;;;;79.40;37.15;;;;;;;3.17;73.49;99406.54;4209776;84;21443;-86
2022/04/11 23:09:10;;;;;;;78.95;38.17;;;;;;;3.19;74.19;99401.62;4180008;84;21162;-87
2022/04/11 23:15:17;;;;;;;76.82;38.40;;;;;;;3.23;74.19;99395.80;4201497;84;20984;-87
2022/04/11 23:21:19;;;;;;;75.30;37.58;;;;;;;3.33;75.14;99390.64;4201596;84;21558;-85
2022/04/11 23:27:22;;;;;;;82.50;41.30;;;;;;;3.33;74.57;99384.68;4199689;83;22316;-86
2022/04/11 23:33:25;;;;;;;82.50;40.65;;;;;;;3.34;74.92;99385.45;4200698;83;21071;-87
2022/04/11 23:39:30;;;;;;;71.55;33.60;;;;;;;3.21;75.12;99392.64;4201580;84;21114;-87
2022/04/11 23:45:38;;;;;;;86.55;39.48;;;;;;;3.23;75.67;99390.39;4211951;83;21052;-87
2022/04/11 23:51:42;;;;;;;90.45;42.10;;;;;;;3.15;75.75;99393.88;4214287;84;21014;-87
2022/04/11 23:57:51;;;;;;;93.15;46.13;;;;;;;3.13;76.05;99388.01;4188465;83;21006;-87
